sensor_id;sensor_type;location;lat;lon;timestamp;pressure;altitude;pressure_sealevel;temperature;humidity
70930;BME280;58588;48.102;19.682;2023-02-08T00:02:38;101744.19;;;-3.97;100.00
70930;BME280;58588;48.102;19.682;2023-02-08T00:05:40;101753.72;;;-3.90;100.00
70930;BME280;58588;48.102;19.682;2023-02-08T00:08:43;101749.22;;;-3.86;100.00
70930;BME280;58588;48.102;19.682;2023-02-08T00:11:46;101751.19;;;-3.94;100.00
70930;BME280;58588;48.102;19.682;2023-02-08T00:14:48;101747.22;;;-3.77;100.00
70930;BME280;58588;48.102;19.682;2023-02-08T00:17:50;101742.81;;;-3.76;100.00
70930;BME280;58588;48.102;19.682;2023-02-08T00:20:53;101757.56;;;-3.69;100.00
70930;BME280;58588;48.102;19.682;2023-02-08T00:23:56;101756.81;;;-3.74;100.00
70930;BME280;58588;48.102;19.682;2023-02-08T00:27:00;101756.69;;;-3.69;100.00
70930;BME280;58588;48.102;19.682;2023-02-08T00:30:03;101743.25;;;-3.59;100.00
70930;BME280;58588;48.102;19.682;2023-02-08T00:33:05;101749.00;;;-3.44;100.00
70930;BME280;58588;48.102;19.682;2023-02-08T00:36:08;101750.72;;;-3.43;100.00
70930;BME280;58588;48.102;19.682;2023-02-08T00:39:10;101745.41;;;-3.42;100.00
70930;BME280;58588;48.102;19.682;2023-02-08T00:42:13;101750.50;;;-3.34;100.00
70930;BME280;58588;48.102;19.682;2023-02-08T00:45:15;101753.88;;;-3.29;100.00
70930;BME280;58588;48.102;19.682;2023-02-08T00:48:17;101755.53;;;-3.27;100.00
70930;BME280;58588;48.102;19.682;2023-02-08T00:51:20;101749.25;;;-3.21;100.00
70930;BME280;58588;48.102;19.682;2023-02-08T00:54:22;101747.34;;;-3.16;100.00
70930;BME280;58588;48.102;19.682;2023-02-08T00:57:25;101747.50;;;-3.22;100.00
70930;BME280;58588;48.102;19.682;2023-02-08T01:00:27;101750.75;;;-3.12;100.00
70930;BME280;58588;48.102;19.682;2023-02-08T01:03:29;101751.22;;;-2.98;100.00
70930;BME280;58588;48.102;19.682;2023-02-08T01:06:33;101744.94;;;-2.94;100.00
70930;BME280;58588;48.102;19.682;2023-02-08T01:09:35;101750.31;;;-2.97;100.00
70930;BME280;58588;48.102;19.682;2023-02-08T01:12:39;101743.50;;;-3.04;100.00
70930;BME280;58588;48.102;19.682;2023-02-08T01:15:41;101743.31;;;-2.98;100.00
70930;BME280;58588;48.102;19.682;2023-02-08T01:18:45;101741.72;;;-3.04;100.00
70930;BME280;58588;48.102;19.682;2023-02-08T01:21:48;101745.78;;;-2.92;95.81
70930;BME280;58588;48.102;19.682;2023-02-08T01:24:50;101741.06;;;-2.81;89.88
70930;BME280;58588;48.102;19.682;2023-02-08T01:27:53;101752.84;;;-2.63;88.27
70930;BME280;58588;48.102;19.682;2023-02-08T01:30:56;101745.84;;;-2.65;92.79
70930;BME280;58588;48.102;19.682;2023-02-08T01:33:59;101742.22;;;-2.61;93.34
70930;BME280;58588;48.102;19.682;2023-02-08T01:37:02;101748.25;;;-2.56;91.85
70930;BME280;58588;48.102;19.682;2023-02-08T01:40:04;101758.47;;;-2.46;90.35
70930;BME280;58588;48.102;19.682;2023-02-08T01:43:15;101758.59;;;-2.50;82.37
70930;BME280;58588;48.102;19.682;2023-02-08T01:46:19;101753.22;;;-2.47;80.97
70930;BME280;58588;48.102;19.682;2023-02-08T01:49:24;101755.47;;;-2.35;80.80
70930;BME280;58588;48.102;19.682;2023-02-08T01:52:28;101752.13;;;-2.40;81.79
70930;BME280;58588;48.102;19.682;2023-02-08T01:55:32;101749.16;;;-2.59;79.09
70930;BME280;58588;48.102;19.682;2023-02-08T01:58:42;101754.09;;;-2.76;81.29
70930;BME280;58588;48.102;19.682;2023-02-08T02:01:45;101750.81;;;-2.84;82.06
70930;BME280;58588;48.102;19.682;2023-02-08T02:04:49;101754.44;;;-2.88;81.07
70930;BME280;58588;48.102;19.682;2023-02-08T02:07:53;101755.66;;;-3.00;80.26
70930;BME280;58588;48.102;19.682;2023-02-08T02:10:58;101760.25;;;-3.07;81.89
70930;BME280;58588;48.102;19.682;2023-02-08T02:14:02;101765.22;;;-3.27;84.17
70930;BME280;58588;48.102;19.682;2023-02-08T02:17:09;101770.72;;;-3.35;83.98
70930;BME280;58588;48.102;19.682;2023-02-08T02:20:20;101773.75;;;-3.50;83.65
70930;BME280;58588;48.102;19.682;2023-02-08T02:27:28;101765.34;;;-3.64;85.17
70930;BME280;58588;48.102;19.682;2023-02-08T02:34:07;101775.41;;;-3.80;85.24
70930;BME280;58588;48.102;19.682;2023-02-08T02:37:20;101788.97;;;-3.97;85.93
70930;BME280;58588;48.102;19.682;2023-02-08T02:40:32;101782.59;;;-3.87;86.51
70930;BME280;58588;48.102;19.682;2023-02-08T02:43:42;101780.31;;;-4.02;88.35
70930;BME280;58588;48.102;19.682;2023-02-08T02:46:49;101788.59;;;-4.17;90.75
70930;BME280;58588;48.102;19.682;2023-02-08T02:50:01;101793.47;;;-4.39;92.30
70930;BME280;58588;48.102;19.682;2023-02-08T02:53:09;101795.47;;;-4.50;93.37
70930;BME280;58588;48.102;19.682;2023-02-08T02:56:15;101803.63;;;-4.63;95.51
70930;BME280;58588;48.102;19.682;2023-02-08T02:59:18;101805.44;;;-4.65;96.83
70930;BME280;58588;48.102;19.682;2023-02-08T03:02:21;101807.03;;;-4.58;99.07
70930;BME280;58588;48.102;19.682;2023-02-08T03:05:25;101799.16;;;-4.58;100.00
70930;BME280;58588;48.102;19.682;2023-02-08T03:08:53;101810.53;;;-4.55;100.00
70930;BME280;58588;48.102;19.682;2023-02-08T03:12:05;101805.41;;;-4.62;98.58
70930;BME280;58588;48.102;19.682;2023-02-08T03:15:22;101803.75;;;-4.69;98.25
70930;BME280;58588;48.102;19.682;2023-02-08T03:18:35;101808.38;;;-4.80;99.25
70930;BME280;58588;48.102;19.682;2023-02-08T03:21:42;101801.63;;;-4.92;100.00
70930;BME280;58588;48.102;19.682;2023-02-08T03:24:52;101813.00;;;-4.91;100.00
70930;BME280;58588;48.102;19.682;2023-02-08T03:28:00;101813.88;;;-4.91;100.00
70930;BME280;58588;48.102;19.682;2023-02-08T03:31:10;101818.41;;;-4.97;100.00
70930;BME280;58588;48.102;19.682;2023-02-08T03:34:18;101805.38;;;-5.05;100.00
70930;BME280;58588;48.102;19.682;2023-02-08T03:37:26;101815.06;;;-5.07;100.00
70930;BME280;58588;48.102;19.682;2023-02-08T03:40:31;101816.78;;;-5.06;100.00
70930;BME280;58588;48.102;19.682;2023-02-08T03:43:40;101822.06;;;-5.06;100.00
70930;BME280;58588;48.102;19.682;2023-02-08T03:46:48;101820.91;;;-4.91;100.00
70930;BME280;58588;48.102;19.682;2023-02-08T03:49:53;101815.44;;;-4.82;100.00
70930;BME280;58588;48.102;19.682;2023-02-08T03:52:57;101818.97;;;-4.83;100.00
70930;BME280;58588;48.102;19.682;2023-02-08T03:56:04;101813.84;;;-4.89;100.00
70930;BME280;58588;48.102;19.682;2023-02-08T03:59:11;101828.22;;;-5.07;100.00
70930;BME280;58588;48.102;19.682;2023-02-08T04:02:18;101831.53;;;-4.97;100.00
70930;BME280;58588;48.102;19.682;2023-02-08T04:05:22;101832.25;;;-4.89;100.00
70930;BME280;58588;48.102;19.682;2023-02-08T04:08:26;101828.56;;;-4.79;100.00
70930;BME280;58588;48.102;19.682;2023-02-08T04:11:28;101830.88;;;-4.65;100.00
70930;BME280;58588;48.102;19.682;2023-02-08T04:14:30;101822.00;;;-4.60;100.00
70930;BME280;58588;48.102;19.682;2023-02-08T04:17:32;101819.28;;;-4.55;100.00
70930;BME280;58588;48.102;19.682;2023-02-08T04:20:34;101821.69;;;-4.46;100.00
70930;BME280;58588;48.102;19.682;2023-02-08T04:23:37;101813.88;;;-4.49;100.00
70930;BME280;58588;48.102;19.682;2023-02-08T04:26:39;101819.16;;;-4.50;100.00
70930;BME280;58588;48.102;19.682;2023-02-08T04:29:41;101818.41;;;-4.55;100.00
70930;BME280;58588;48.102;19.682;2023-02-08T04:32:43;101825.72;;;-4.70;100.00
70930;BME280;58588;48.102;19.682;2023-02-08T04:35:45;101833.59;;;-4.70;100.00
70930;BME280;58588;48.102;19.682;2023-02-08T04:38:49;101827.88;;;-4.90;100.00
70930;BME280;58588;48.102;19.682;2023-02-08T04:41:51;101839.31;;;-4.91;100.00
70930;BME280;58588;48.102;19.682;2023-02-08T04:44:53;101837.59;;;-4.94;100.00
70930;BME280;58588;48.102;19.682;2023-02-08T04:47:55;101829.75;;;-4.95;100.00
70930;BME280;58588;48.102;19.682;2023-02-08T04:50:57;101833.28;;;-4.96;100.00
70930;BME280;58588;48.102;19.682;2023-02-08T04:54:01;101841.34;;;-5.07;100.00
70930;BME280;58588;48.102;19.682;2023-02-08T04:57:03;101849.41;;;-5.15;100.00
70930;BME280;58588;48.102;19.682;2023-02-08T05:00:06;101850.59;;;-5.32;100.00
70930;BME280;58588;48.102;19.682;2023-02-08T05:03:08;101842.72;;;-5.34;100.00
70930;BME280;58588;48.102;19.682;2023-02-08T05:06:10;101841.84;;;-5.34;100.00
70930;BME280;58588;48.102;19.682;2023-02-08T05:09:14;101854.25;;;-5.43;100.00
70930;BME280;58588;48.102;19.682;2023-02-08T05:12:16;101856.28;;;-5.58;100.00
70930;BME280;58588;48.102;19.682;2023-02-08T05:15:18;101862.28;;;-5.52;100.00
70930;BME280;58588;48.102;19.682;2023-02-08T05:18:20;101860.59;;;-5.54;100.00
70930;BME280;58588;48.102;19.682;2023-02-08T05:21:22;101858.00;;;-5.56;100.00
70930;BME280;58588;48.102;19.682;2023-02-08T05:24:26;101851.97;;;-5.64;100.00
70930;BME280;58588;48.102;19.682;2023-02-08T05:27:28;101860.75;;;-5.65;100.00
70930;BME280;58588;48.102;19.682;2023-02-08T05:30:30;101863.66;;;-5.80;100.00
70930;BME280;58588;48.102;19.682;2023-02-08T05:33:32;101871.59;;;-5.85;100.00
70930;BME280;58588;48.102;19.682;2023-02-08T05:36:34;101876.03;;;-5.90;100.00
70930;BME280;58588;48.102;19.682;2023-02-08T05:39:37;101867.41;;;-5.97;100.00
70930;BME280;58588;48.102;19.682;2023-02-08T05:42:39;101879.03;;;-6.14;100.00
70930;BME280;58588;48.102;19.682;2023-02-08T05:45:42;101874.63;;;-6.11;100.00
70930;BME280;58588;48.102;19.682;2023-02-08T05:48:44;101869.41;;;-6.14;100.00
70930;BME280;58588;48.102;19.682;2023-02-08T05:51:46;101874.88;;;-6.29;100.00
70930;BME280;58588;48.102;19.682;2023-02-08T05:54:51;101876.84;;;-6.47;100.00
70930;BME280;58588;48.102;19.682;2023-02-08T05:57:53;101885.59;;;-6.46;100.00
70930;BME280;58588;48.102;19.682;2023-02-08T06:00:55;101883.00;;;-6.49;100.00
70930;BME280;58588;48.102;19.682;2023-02-08T06:03:57;101890.03;;;-6.51;100.00
70930;BME280;58588;48.102;19.682;2023-02-08T06:07:00;101893.53;;;-6.54;100.00
70930;BME280;58588;48.102;19.682;2023-02-08T06:10:04;101898.91;;;-6.63;100.00
70930;BME280;58588;48.102;19.682;2023-02-08T06:13:06;101906.03;;;-6.74;100.00
70930;BME280;58588;48.102;19.682;2023-02-08T06:16:08;101906.94;;;-6.80;100.00
70930;BME280;58588;48.102;19.682;2023-02-08T06:19:10;101898.91;;;-6.63;100.00
70930;BME280;58588;48.102;19.682;2023-02-08T06:22:12;101906.69;;;-6.55;100.00
70930;BME280;58588;48.102;19.682;2023-02-08T06:25:16;101905.81;;;-6.56;100.00
70930;BME280;58588;48.102;19.682;2023-02-08T06:28:18;101902.31;;;-6.56;100.00
70930;BME280;58588;48.102;19.682;2023-02-08T06:31:20;101915.38;;;-6.52;100.00
70930;BME280;58588;48.102;19.682;2023-02-08T06:34:22;101912.69;;;-6.45;100.00
70930;BME280;58588;48.102;19.682;2023-02-08T06:37:24;101915.31;;;-6.45;100.00
70930;BME280;58588;48.102;19.682;2023-02-08T06:40:28;101926.63;;;-6.40;100.00
70930;BME280;58588;48.102;19.682;2023-02-08T06:43:30;101924.97;;;-6.48;100.00
70930;BME280;58588;48.102;19.682;2023-02-08T06:46:32;101930.13;;;-6.43;100.00
70930;BME280;58588;48.102;19.682;2023-02-08T06:49:34;101936.13;;;-6.32;100.00
70930;BME280;58588;48.102;19.682;2023-02-08T06:52:36;101943.97;;;-6.27;100.00
70930;BME280;58588;48.102;19.682;2023-02-08T06:55:40;101950.28;;;-6.45;100.00
70930;BME280;58588;48.102;19.682;2023-02-08T06:58:42;101946.69;;;-6.36;100.00
70930;BME280;58588;48.102;19.682;2023-02-08T07:01:44;101949.19;;;-6.26;100.00
70930;BME280;58588;48.102;19.682;2023-02-08T07:04:47;101945.63;;;-6.22;100.00
70930;BME280;58588;48.102;19.682;2023-02-08T07:07:49;101939.22;;;-6.01;100.00
70930;BME280;58588;48.102;19.682;2023-02-08T07:10:52;101947.09;;;-6.01;100.00
70930;BME280;58588;48.102;19.682;2023-02-08T07:13:54;101940.78;;;-5.87;100.00
70930;BME280;58588;48.102;19.682;2023-02-08T07:16:56;101938.06;;;-5.81;100.00
70930;BME280;58588;48.102;19.682;2023-02-08T07:19:58;101939.56;;;-5.65;100.00
70930;BME280;58588;48.102;19.682;2023-02-08T07:23:00;101947.31;;;-5.56;100.00
70930;BME280;58588;48.102;19.682;2023-02-08T07:26:06;101949.72;;;-5.42;100.00
70930;BME280;58588;48.102;19.682;2023-02-08T07:29:08;101952.94;;;-5.22;100.00
70930;BME280;58588;48.102;19.682;2023-02-08T07:32:10;101956.28;;;-5.14;100.00
70930;BME280;58588;48.102;19.682;2023-02-08T07:35:13;101957.00;;;-5.05;100.00
70930;BME280;58588;48.102;19.682;2023-02-08T07:38:15;101955.78;;;-4.85;100.00
70930;BME280;58588;48.102;19.682;2023-02-08T07:41:19;101948.50;;;-4.70;100.00
70930;BME280;58588;48.102;19.682;2023-02-08T07:44:21;101952.06;;;-4.73;100.00
70930;BME280;58588;48.102;19.682;2023-02-08T07:47:23;101960.53;;;-4.57;100.00
70930;BME280;58588;48.102;19.682;2023-02-08T07:50:25;101956.50;;;-4.30;100.00
70930;BME280;58588;48.102;19.682;2023-02-08T07:53:27;101961.41;;;-4.12;100.00
70930;BME280;58588;48.102;19.682;2023-02-08T07:56:31;101966.13;;;-3.86;100.00
70930;BME280;58588;48.102;19.682;2023-02-08T07:59:33;101964.13;;;-3.74;100.00
70930;BME280;58588;48.102;19.682;2023-02-08T08:02:35;101964.22;;;-3.42;100.00
70930;BME280;58588;48.102;19.682;2023-02-08T08:05:39;101961.50;;;-3.37;100.00
70930;BME280;58588;48.102;19.682;2023-02-08T08:08:41;101959.13;;;-3.12;100.00
70930;BME280;58588;48.102;19.682;2023-02-08T08:11:48;101962.03;;;-2.87;100.00
70930;BME280;58588;48.102;19.682;2023-02-08T08:14:50;101972.28;;;-2.75;100.00
70930;BME280;58588;48.102;19.682;2023-02-08T08:17:52;101980.00;;;-2.67;100.00
70930;BME280;58588;48.102;19.682;2023-02-08T08:20:55;101987.72;;;-2.29;100.00
70930;BME280;58588;48.102;19.682;2023-02-08T08:23:57;101984.22;;;-2.28;100.00
70930;BME280;58588;48.102;19.682;2023-02-08T08:27:00;101985.97;;;-1.97;100.00
70930;BME280;58588;48.102;19.682;2023-02-08T08:30:03;101986.38;;;-1.81;100.00
70930;BME280;58588;48.102;19.682;2023-02-08T08:33:06;101986.75;;;-1.64;100.00
70930;BME280;58588;48.102;19.682;2023-02-08T08:36:08;101994.84;;;-1.41;100.00
70930;BME280;58588;48.102;19.682;2023-02-08T08:39:10;101999.41;;;-1.18;99.34
70930;BME280;58588;48.102;19.682;2023-02-08T08:42:14;102001.84;;;-1.12;96.36
70930;BME280;58588;48.102;19.682;2023-02-08T08:45:16;102003.44;;;-1.06;93.23
70930;BME280;58588;48.102;19.682;2023-02-08T08:48:18;102012.09;;;-0.74;91.22
70930;BME280;58588;48.102;19.682;2023-02-08T08:51:20;102012.31;;;-0.56;90.97
70930;BME280;58588;48.102;19.682;2023-02-08T08:54:22;102012.19;;;-0.51;89.35
70930;BME280;58588;48.102;19.682;2023-02-08T08:57:26;102016.19;;;-0.39;89.68
70930;BME280;58588;48.102;19.682;2023-02-08T09:00:28;102015.53;;;-0.21;86.25
70930;BME280;58588;48.102;19.682;2023-02-08T09:03:30;102022.03;;;-0.05;88.29
70930;BME280;58588;48.102;19.682;2023-02-08T09:06:32;102032.66;;;-0.06;85.51
70930;BME280;58588;48.102;19.682;2023-02-08T09:09:34;102028.03;;;0.24;82.70
70930;BME280;58588;48.102;19.682;2023-02-08T09:12:38;102032.53;;;0.45;82.76
70930;BME280;58588;48.102;19.682;2023-02-08T09:15:40;102033.03;;;0.78;83.71
70930;BME280;58588;48.102;19.682;2023-02-08T09:18:42;102030.25;;;1.03;79.15
70930;BME280;58588;48.102;19.682;2023-02-08T09:21:45;102036.59;;;1.21;79.99
70930;BME280;58588;48.102;19.682;2023-02-08T09:24:47;102028.66;;;1.42;77.05
70930;BME280;58588;48.102;19.682;2023-02-08T09:27:50;102026.75;;;1.86;79.52
70930;BME280;58588;48.102;19.682;2023-02-08T09:30:52;102025.00;;;1.85;77.46
70930;BME280;58588;48.102;19.682;2023-02-08T09:33:56;102020.47;;;2.07;74.64
70930;BME280;58588;48.102;19.682;2023-02-08T09:36:58;102021.78;;;1.97;73.74
70930;BME280;58588;48.102;19.682;2023-02-08T09:40:00;102024.38;;;2.19;73.85
70930;BME280;58588;48.102;19.682;2023-02-08T09:43:09;102021.59;;;2.22;72.54
70930;BME280;58588;48.102;19.682;2023-02-08T09:46:16;102025.97;;;2.61;73.53
70930;BME280;58588;48.102;19.682;2023-02-08T09:49:23;102017.69;;;2.86;72.80
70930;BME280;58588;48.102;19.682;2023-02-08T09:52:33;102020.63;;;2.80;69.88
70930;BME280;58588;48.102;19.682;2023-02-08T09:55:37;102026.59;;;3.21;71.17
70930;BME280;58588;48.102;19.682;2023-02-08T09:58:45;102017.63;;;3.05;69.35
70930;BME280;58588;48.102;19.682;2023-02-08T10:01:50;102011.78;;;3.15;68.56
70930;BME280;58588;48.102;19.682;2023-02-08T10:04:57;102013.81;;;3.10;68.55
70930;BME280;58588;48.102;19.682;2023-02-08T10:08:00;102013.06;;;3.43;65.99
70930;BME280;58588;48.102;19.682;2023-02-08T10:11:17;102011.91;;;3.48;65.54
70930;BME280;58588;48.102;19.682;2023-02-08T10:14:39;102010.09;;;3.49;65.36
70930;BME280;58588;48.102;19.682;2023-02-08T10:18:00;102007.88;;;3.74;65.69
70930;BME280;58588;48.102;19.682;2023-02-08T10:21:28;102011.97;;;4.15;62.44
70930;BME280;58588;48.102;19.682;2023-02-08T10:25:02;102007.16;;;4.21;60.98
70930;BME280;58588;48.102;19.682;2023-02-08T10:28:38;102006.47;;;3.67;59.48
70930;BME280;58588;48.102;19.682;2023-02-08T10:31:53;102013.75;;;3.46;60.94
70930;BME280;58588;48.102;19.682;2023-02-08T10:35:00;102001.38;;;3.80;60.96
70930;BME280;58588;48.102;19.682;2023-02-08T10:38:22;102000.88;;;4.22;58.52
70930;BME280;58588;48.102;19.682;2023-02-08T10:41:28;101988.63;;;4.18;56.24
70930;BME280;58588;48.102;19.682;2023-02-08T10:44:38;101998.06;;;4.73;57.75
70930;BME280;58588;48.102;19.682;2023-02-08T10:47:46;102001.69;;;4.40;58.63
70930;BME280;58588;48.102;19.682;2023-02-08T10:50:50;102000.44;;;4.14;58.88
70930;BME280;58588;48.102;19.682;2023-02-08T10:53:52;102002.34;;;3.95;58.08
70930;BME280;58588;48.102;19.682;2023-02-08T10:56:57;101997.31;;;3.73;59.10
70930;BME280;58588;48.102;19.682;2023-02-08T11:00:05;101999.69;;;3.78;60.16
70930;BME280;58588;48.102;19.682;2023-02-08T11:03:15;102006.78;;;3.27;58.28
70930;BME280;58588;48.102;19.682;2023-02-08T11:06:25;102002.72;;;3.37;58.48
70930;BME280;58588;48.102;19.682;2023-02-08T11:09:29;101995.06;;;3.98;58.27
70930;BME280;58588;48.102;19.682;2023-02-08T11:12:32;101997.09;;;4.26;56.64
70930;BME280;58588;48.102;19.682;2023-02-08T11:15:37;101996.22;;;4.10;57.83
70930;BME280;58588;48.102;19.682;2023-02-08T11:18:48;101990.84;;;3.60;57.10
70930;BME280;58588;48.102;19.682;2023-02-08T11:21:53;102006.50;;;3.50;56.50
70930;BME280;58588;48.102;19.682;2023-02-08T11:24:57;101997.00;;;3.44;56.81
70930;BME280;58588;48.102;19.682;2023-02-08T11:28:00;101987.28;;;3.61;57.85
70930;BME280;58588;48.102;19.682;2023-02-08T11:31:15;101995.06;;;3.98;58.93
70930;BME280;58588;48.102;19.682;2023-02-08T11:34:23;101990.31;;;4.84;57.28
70930;BME280;58588;48.102;19.682;2023-02-08T11:37:25;101986.91;;;5.12;54.07
70930;BME280;58588;48.102;19.682;2023-02-08T11:40:31;101985.88;;;5.89;56.67
70930;BME280;58588;48.102;19.682;2023-02-08T11:43:35;101987.44;;;5.03;56.14
70930;BME280;58588;48.102;19.682;2023-02-08T11:46:37;101985.66;;;5.78;55.72
70930;BME280;58588;48.102;19.682;2023-02-08T11:49:50;101976.72;;;6.22;54.78
70930;BME280;58588;48.102;19.682;2023-02-08T11:52:56;101981.19;;;6.35;50.83
70930;BME280;58588;48.102;19.682;2023-02-08T11:56:04;101974.72;;;6.25;52.75
70930;BME280;58588;48.102;19.682;2023-02-08T11:59:18;101982.34;;;6.60;50.89
70930;BME280;58588;48.102;19.682;2023-02-08T12:02:30;101982.94;;;6.78;52.05
70930;BME280;58588;48.102;19.682;2023-02-08T12:05:42;101977.03;;;6.73;51.52
70930;BME280;58588;48.102;19.682;2023-02-08T12:08:51;101975.94;;;6.34;50.99
70930;BME280;58588;48.102;19.682;2023-02-08T12:12:01;101980.13;;;6.52;50.02
70930;BME280;58588;48.102;19.682;2023-02-08T12:15:14;101970.09;;;6.56;49.12
70930;BME280;58588;48.102;19.682;2023-02-08T12:18:32;101967.91;;;6.34;51.45
70930;BME280;58588;48.102;19.682;2023-02-08T12:21:42;101972.66;;;5.86;50.88
70930;BME280;58588;48.102;19.682;2023-02-08T12:24:48;101981.44;;;5.29;51.82
70930;BME280;58588;48.102;19.682;2023-02-08T12:27:58;101973.78;;;5.53;51.44
70930;BME280;58588;48.102;19.682;2023-02-08T12:31:06;101969.31;;;5.38;50.00
70930;BME280;58588;48.102;19.682;2023-02-08T12:34:14;101961.84;;;5.87;49.29
70930;BME280;58588;48.102;19.682;2023-02-08T12:37:30;101961.84;;;5.87;48.98
70930;BME280;58588;48.102;19.682;2023-02-08T12:41:03;101969.31;;;5.24;50.18
70930;BME280;58588;48.102;19.682;2023-02-08T12:44:10;101967.38;;;4.96;49.67
70930;BME280;58588;48.102;19.682;2023-02-08T12:47:29;101974.47;;;4.65;51.35
70930;BME280;58588;48.102;19.682;2023-02-08T12:50:38;101970.75;;;4.36;51.15
70930;BME280;58588;48.102;19.682;2023-02-08T12:53:47;101964.63;;;4.34;51.44
70930;BME280;58588;48.102;19.682;2023-02-08T12:56:53;101962.84;;;4.01;51.58
70930;BME280;58588;48.102;19.682;2023-02-08T12:59:59;101963.69;;;3.86;54.69
70930;BME280;58588;48.102;19.682;2023-02-08T13:03:07;101963.66;;;4.19;54.58
70930;BME280;58588;48.102;19.682;2023-02-08T13:06:17;101965.59;;;4.33;53.84
70930;BME280;58588;48.102;19.682;2023-02-08T13:09:33;101966.97;;;4.72;54.48
70930;BME280;58588;48.102;19.682;2023-02-08T13:12:39;101957.28;;;5.31;51.86
70930;BME280;58588;48.102;19.682;2023-02-08T13:15:45;101958.28;;;5.14;50.04
70930;BME280;58588;48.102;19.682;2023-02-08T13:19:04;101949.81;;;5.22;50.73
70930;BME280;58588;48.102;19.682;2023-02-08T13:22:10;101951.53;;;5.53;49.36
70930;BME280;58588;48.102;19.682;2023-02-08T13:25:22;101957.31;;;4.69;49.85
70930;BME280;58588;48.102;19.682;2023-02-08T13:28:26;101950.69;;;4.61;49.99
70930;BME280;58588;48.102;19.682;2023-02-08T13:31:31;101955.75;;;4.49;50.65
70930;BME280;58588;48.102;19.682;2023-02-08T13:34:37;101951.72;;;4.74;52.82
70930;BME280;58588;48.102;19.682;2023-02-08T13:37:49;101942.69;;;5.06;51.65
70930;BME280;58588;48.102;19.682;2023-02-08T13:41:04;101952.91;;;4.84;51.04
70930;BME280;58588;48.102;19.682;2023-02-08T13:44:08;101950.69;;;4.61;51.49
70930;BME280;58588;48.102;19.682;2023-02-08T13:47:23;101953.03;;;4.97;51.65
70930;BME280;58588;48.102;19.682;2023-02-08T13:50:46;101945.59;;;5.18;51.42
70930;BME280;58588;48.102;19.682;2023-02-08T13:54:09;101950.22;;;5.30;50.20
70930;BME280;58588;48.102;19.682;2023-02-08T14:01:14;101948.75;;;4.94;51.45
70930;BME280;58588;48.102;19.682;2023-02-08T14:04:29;101943.69;;;5.20;51.39
70930;BME280;58588;48.102;19.682;2023-02-08T14:07:40;101943.19;;;4.51;50.36
70930;BME280;58588;48.102;19.682;2023-02-08T14:10:48;101941.97;;;4.25;51.04
70930;BME280;58588;48.102;19.682;2023-02-08T14:13:54;101939.16;;;3.95;53.11
70930;BME280;58588;48.102;19.682;2023-02-08T14:17:17;101932.09;;;3.94;52.05
70930;BME280;58588;48.102;19.682;2023-02-08T14:20:24;101940.41;;;4.06;53.19
70930;BME280;58588;48.102;19.682;2023-02-08T14:23:29;101934.56;;;4.30;54.04
70930;BME280;58588;48.102;19.682;2023-02-08T14:26:33;101941.28;;;4.69;53.24
70930;BME280;58588;48.102;19.682;2023-02-08T14:29:36;101942.22;;;4.84;52.75
70930;BME280;58588;48.102;19.682;2023-02-08T14:32:42;101940.91;;;4.91;52.27
70930;BME280;58588;48.102;19.682;2023-02-08T14:35:53;101926.63;;;5.22;51.40
70930;BME280;58588;48.102;19.682;2023-02-08T14:39:19;101935.94;;;5.15;51.00
70930;BME280;58588;48.102;19.682;2023-02-08T14:42:52;101930.44;;;5.91;47.59
70930;BME280;58588;48.102;19.682;2023-02-08T14:45:55;101928.50;;;6.22;46.08
70930;BME280;58588;48.102;19.682;2023-02-08T14:48:59;101927.84;;;6.04;47.90
70930;BME280;58588;48.102;19.682;2023-02-08T14:52:04;101933.38;;;6.43;45.96
70930;BME280;58588;48.102;19.682;2023-02-08T14:55:14;101926.25;;;6.57;44.59
70930;BME280;58588;48.102;19.682;2023-02-08T14:58:26;101930.72;;;7.10;45.62
70930;BME280;58588;48.102;19.682;2023-02-08T15:01:39;101933.59;;;7.47;43.90
70930;BME280;58588;48.102;19.682;2023-02-08T15:04:44;101937.88;;;8.00;43.37
70930;BME280;58588;48.102;19.682;2023-02-08T15:07:49;101936.91;;;7.38;43.20
70930;BME280;58588;48.102;19.682;2023-02-08T15:10:51;101939.34;;;7.15;42.41
70930;BME280;58588;48.102;19.682;2023-02-08T15:13:56;101931.59;;;7.23;43.80
70930;BME280;58588;48.102;19.682;2023-02-08T15:16:58;101936.22;;;7.09;45.09
70930;BME280;58588;48.102;19.682;2023-02-08T15:20:04;101929.66;;;7.25;43.59
70930;BME280;58588;48.102;19.682;2023-02-08T15:23:19;101931.03;;;6.66;44.61
70930;BME280;58588;48.102;19.682;2023-02-08T15:26:22;101926.94;;;6.46;44.03
70930;BME280;58588;48.102;19.682;2023-02-08T15:29:26;101928.88;;;5.73;45.33
70930;BME280;58588;48.102;19.682;2023-02-08T15:32:28;101940.69;;;4.80;47.58
70930;BME280;58588;48.102;19.682;2023-02-08T15:35:33;101944.06;;;4.20;49.27
70930;BME280;58588;48.102;19.682;2023-02-08T15:38:36;101950.03;;;3.92;49.65
70930;BME280;58588;48.102;19.682;2023-02-08T15:41:39;101942.72;;;3.45;50.66
70930;BME280;58588;48.102;19.682;2023-02-08T15:44:42;101944.94;;;3.20;50.89
70930;BME280;58588;48.102;19.682;2023-02-08T15:47:45;101949.22;;;2.88;52.45
70930;BME280;58588;48.102;19.682;2023-02-08T15:50:48;101951.94;;;2.50;53.17
70930;BME280;58588;48.102;19.682;2023-02-08T15:53:52;101957.09;;;2.15;54.85
70930;BME280;58588;48.102;19.682;2023-02-08T15:56:57;101949.56;;;2.06;55.14
70930;BME280;58588;48.102;19.682;2023-02-08T16:00:00;101956.00;;;1.82;55.20
70930;BME280;58588;48.102;19.682;2023-02-08T16:03:05;101968.31;;;1.64;56.60
70930;BME280;58588;48.102;19.682;2023-02-08T16:06:10;101969.91;;;1.48;56.62
70930;BME280;58588;48.102;19.682;2023-02-08T16:09:15;101976.88;;;1.30;57.81
70930;BME280;58588;48.102;19.682;2023-02-08T16:12:20;101972.94;;;1.18;58.31